Time,TemperatureF,DewpointF,PressureIn,WindDirection,WindDirectionDegrees,WindSpeedMPH,WindSpeedGustMPH,Humidity,HourlyPrecipIn,Conditions,Clouds,dailyrainin,SoftwareType,DateUTC
2013-05-28 00:01:00,55.6,55.0,29.85,SSE,148,2.0,2.0,98,0.14,,,0.52,VWS V14.01,2013-05-28 04:01:00,
2013-05-28 00:06:00,55.7,55.2,29.84,SSE,150,0.0,2.0,98,0.05,,,0.00,VWS V14.01,2013-05-28 04:06:00,
2013-05-28 00:11:00,55.8,55.2,29.84,SSE,153,0.0,3.0,98,0.05,,,0.00,VWS V14.01,2013-05-28 04:11:00,
2013-05-28 00:16:00,55.9,55.3,29.84,SSE,149,1.0,3.0,98,0.05,,,0.00,VWS V14.01,2013-05-28 04:16:00,
2013-05-28 00:21:00,55.9,55.1,29.84,SSE,153,1.0,3.0,97,0.06,,,0.01,VWS V14.01,2013-05-28 04:21:00,
2013-05-28 00:26:00,56.0,55.2,29.84,SSE,148,2.0,3.0,97,0.06,,,0.01,VWS V14.01,2013-05-28 04:26:00,
2013-05-28 00:31:00,56.1,55.3,29.84,SSE,152,2.0,3.0,97,0.06,,,0.01,VWS V14.01,2013-05-28 04:31:00,
2013-05-28 00:36:00,56.1,55.0,29.84,SSE,163,1.0,5.0,96,0.07,,,0.02,VWS V14.01,2013-05-28 04:36:00,
2013-05-28 00:41:00,56.2,55.1,29.84,SSE,148,3.0,5.0,96,0.09,,,0.04,VWS V14.01,2013-05-28 04:41:00,
2013-05-28 00:46:00,56.3,55.5,29.84,SW,217,2.0,5.0,97,0.11,,,0.06,VWS V14.01,2013-05-28 04:46:00,
2013-05-28 00:51:00,56.3,55.5,29.84,South,183,2.0,5.0,97,0.13,,,0.08,VWS V14.01,2013-05-28 04:51:00,
2013-05-28 00:56:00,56.3,55.5,29.84,SSE,167,0.0,5.0,97,0.15,,,0.10,VWS V14.01,2013-05-28 04:56:00,
2013-05-28 01:01:00,56.4,55.6,29.84,SSE,150,0.0,5.0,97,0.17,,,0.12,VWS V14.01,2013-05-28 05:01:00,
2013-05-28 01:06:00,56.5,55.7,29.84,SSE,151,1.0,2.0,97,0.15,,,0.15,VWS V14.01,2013-05-28 05:06:00,
2013-05-28 01:11:00,56.5,55.7,29.84,South,190,0.0,2.0,97,0.17,,,0.17,VWS V14.01,2013-05-28 05:11:00,
2013-05-28 01:16:00,56.5,55.7,29.84,SSE,162,1.0,2.0,97,0.21,,,0.21,VWS V14.01,2013-05-28 05:16:00,
2013-05-28 01:21:00,56.6,55.8,29.84,SSE,159,1.0,2.0,97,0.26,,,0.26,VWS V14.01,2013-05-28 05:21:00,
2013-05-28 01:26:00,56.6,55.8,29.84,SSE,160,0.0,2.0,97,0.30,,,0.30,VWS V14.01,2013-05-28 05:26:00,
2013-05-28 01:31:00,56.6,56.0,29.84,SSE,156,1.0,2.0,98,0.32,,,0.32,VWS V14.01,2013-05-28 05:31:00,
2013-05-28 01:36:00,56.6,55.8,29.83,SSE,149,2.0,3.0,97,0.35,,,0.35,VWS V14.01,2013-05-28 05:36:00,
2013-05-28 01:41:00,56.5,55.7,29.83,SSE,150,0.0,3.0,97,0.35,,,0.35,VWS V14.01,2013-05-28 05:41:00,
2013-05-28 01:46:00,56.5,55.7,29.83,SSE,150,0.0,3.0,97,0.35,,,0.35,VWS V14.01,2013-05-28 05:46:00,
2013-05-28 01:51:00,56.5,55.9,29.82,SSE,150,1.0,3.0,98,0.37,,,0.37,VWS V14.01,2013-05-28 05:51:00,
2013-05-28 01:56:00,56.5,55.9,29.82,SSE,151,1.0,3.0,98,0.37,,,0.37,VWS V14.01,2013-05-28 05:56:00,
2013-05-28 02:01:00,56.5,55.9,29.82,SSE,151,0.0,3.0,98,0.37,,,0.37,VWS V14.01,2013-05-28 06:01:00,
2013-05-28 02:06:00,56.5,55.9,29.82,SSE,150,2.0,2.0,98,0.24,,,0.37,VWS V14.01,2013-05-28 06:06:00,
2013-05-28 02:11:00,56.6,56.0,29.82,SSE,151,0.0,2.0,98,0.24,,,0.37,VWS V14.01,2013-05-28 06:11:00,
2013-05-28 02:16:00,56.6,56.0,29.81,SSE,150,0.0,2.0,98,0.24,,,0.37,VWS V14.01,2013-05-28 06:16:00,
2013-05-28 02:21:00,56.6,56.0,29.81,SSE,150,1.0,2.0,98,0.24,,,0.37,VWS V14.01,2013-05-28 06:21:00,
2013-05-28 02:26:00,56.6,56.0,29.81,SSE,150,0.0,2.0,98,0.24,,,0.37,VWS V14.01,2013-05-28 06:26:00,
2013-05-28 02:31:00,56.6,56.0,29.81,SSE,150,0.0,2.0,98,0.25,,,0.38,VWS V14.01,2013-05-28 06:31:00,
2013-05-28 02:36:00,56.6,56.0,29.80,SSE,150,0.0,2.0,98,0.25,,,0.38,VWS V14.01,2013-05-28 06:36:00,
2013-05-28 02:41:00,56.7,56.1,29.80,SSE,150,0.0,2.0,98,0.25,,,0.38,VWS V14.01,2013-05-28 06:41:00,
2013-05-28 02:46:00,56.7,56.1,29.80,SSE,150,1.0,2.0,98,0.25,,,0.38,VWS V14.01,2013-05-28 06:46:00,
2013-05-28 02:51:00,56.8,56.2,29.80,SSE,150,0.0,2.0,98,0.25,,,0.38,VWS V14.01,2013-05-28 06:51:00,
2013-05-28 02:56:00,56.8,56.2,29.81,SSE,151,0.0,2.0,98,0.25,,,0.38,VWS V14.01,2013-05-28 06:56:00,
2013-05-28 03:01:00,56.9,56.3,29.81,SSE,151,0.0,2.0,98,0.25,,,0.38,VWS V14.01,2013-05-28 07:01:00,
2013-05-28 03:06:00,56.9,56.3,29.80,SSE,150,0.0,0.0,98,0.01,,,0.38,VWS V14.01,2013-05-28 07:06:00,
2013-05-28 03:11:00,56.9,56.3,29.80,SSE,150,0.0,1.0,98,0.01,,,0.38,VWS V14.01,2013-05-28 07:11:00,
2013-05-28 03:16:00,57.0,56.4,29.80,SSE,150,0.0,1.0,98,0.01,,,0.38,VWS V14.01,2013-05-28 07:16:00,
2013-05-28 03:21:00,57.0,56.4,29.80,SSE,151,0.0,1.0,98,0.01,,,0.38,VWS V14.01,2013-05-28 07:21:00,
2013-05-28 03:26:00,57.0,56.4,29.80,SSE,150,0.0,1.0,98,0.01,,,0.38,VWS V14.01,2013-05-28 07:26:00,
2013-05-28 03:31:00,57.0,56.4,29.80,SSE,151,0.0,1.0,98,0.01,,,0.38,VWS V14.01,2013-05-28 07:31:00,
2013-05-28 03:36:00,57.0,56.4,29.80,SSE,151,0.0,1.0,98,0.01,,,0.38,VWS V14.01,2013-05-28 07:36:00,
2013-05-28 03:41:00,56.9,56.1,29.79,SSE,150,0.0,1.0,97,0.01,,,0.38,VWS V14.01,2013-05-28 07:41:00,
2013-05-28 03:46:00,56.9,56.3,29.79,SSE,151,0.0,1.0,98,0.01,,,0.38,VWS V14.01,2013-05-28 07:46:00,
2013-05-28 03:51:00,56.9,56.1,29.80,SSE,150,0.0,1.0,97,0.01,,,0.38,VWS V14.01,2013-05-28 07:51:00,
2013-05-28 03:56:00,56.9,56.3,29.79,SSE,151,0.0,1.0,98,0.01,,,0.38,VWS V14.01,2013-05-28 07:56:00,
2013-05-28 04:01:00,56.9,56.3,29.79,SSW,200,0.0,1.0,98,0.01,,,0.38,VWS V14.01,2013-05-28 08:01:00,
2013-05-28 04:06:00,57.0,56.4,29.79,SSW,200,0.0,0.0,98,0.00,,,0.38,VWS V14.01,2013-05-28 08:06:00,
2013-05-28 04:11:00,57.0,56.4,29.79,SSW,200,0.0,0.0,98,0.00,,,0.38,VWS V14.01,2013-05-28 08:11:00,
2013-05-28 04:16:00,57.0,56.4,29.79,SSW,200,0.0,0.0,98,0.00,,,0.38,VWS V14.01,2013-05-28 08:16:00,
2013-05-28 04:21:00,57.0,56.4,29.79,SSW,200,0.0,0.0,98,0.00,,,0.38,VWS V14.01,2013-05-28 08:21:00,
2013-05-28 04:26:00,56.9,56.3,29.79,SSW,200,0.0,0.0,98,0.00,,,0.38,VWS V14.01,2013-05-28 08:26:00,
2013-05-28 04:31:00,56.8,56.0,29.79,SSW,200,0.0,0.0,97,0.00,,,0.38,VWS V14.01,2013-05-28 08:31:00,
2013-05-28 04:36:00,56.8,56.2,29.79,SSW,199,0.0,1.0,98,0.00,,,0.38,VWS V14.01,2013-05-28 08:36:00,
2013-05-28 04:41:00,56.9,56.3,29.79,SSW,199,0.0,1.0,98,0.00,,,0.38,VWS V14.01,2013-05-28 08:41:00,
2013-05-28 04:46:00,57.0,56.4,29.79,SSW,200,0.0,1.0,98,0.00,,,0.38,VWS V14.01,2013-05-28 08:46:00,
2013-05-28 04:51:00,57.1,56.5,29.79,SSW,200,0.0,1.0,98,0.00,,,0.38,VWS V14.01,2013-05-28 08:51:00,
2013-05-28 04:56:00,57.2,56.6,29.79,SSW,200,0.0,1.0,98,0.00,,,0.38,VWS V14.01,2013-05-28 08:56:00,
2013-05-28 05:01:00,57.4,56.8,29.79,SSW,200,0.0,1.0,98,0.00,,,0.38,VWS V14.01,2013-05-28 09:01:00,
2013-05-28 05:06:00,57.6,57.0,29.80,SSW,200,0.0,1.0,98,0.00,,,0.38,VWS V14.01,2013-05-28 09:06:00,
2013-05-28 05:11:00,57.7,57.1,29.80,SSW,200,0.0,1.0,98,0.00,,,0.38,VWS V14.01,2013-05-28 09:11:00,
2013-05-28 05:16:00,57.8,57.2,29.81,SSW,199,0.0,1.0,98,0.00,,,0.38,VWS V14.01,2013-05-28 09:16:00,
2013-05-28 05:21:00,58.1,57.5,29.81,SSW,200,2.0,2.0,98,0.00,,,0.38,VWS V14.01,2013-05-28 09:21:00,
2013-05-28 05:26:00,58.4,57.8,29.81,SSW,199,0.0,2.0,98,0.00,,,0.38,VWS V14.01,2013-05-28 09:26:00,
2013-05-28 05:31:00,58.7,58.1,29.82,SSW,193,0.0,2.0,98,0.00,,,0.38,VWS V14.01,2013-05-28 09:31:00,
2013-05-28 05:36:00,58.9,58.3,29.82,SSW,193,0.0,2.0,98,0.00,,,0.38,VWS V14.01,2013-05-28 09:36:00,
2013-05-28 05:41:00,59.1,58.5,29.82,SSW,193,0.0,2.0,98,0.00,,,0.38,VWS V14.01,2013-05-28 09:41:00,
2013-05-28 05:46:00,59.3,58.5,29.82,SSW,193,0.0,2.0,97,0.00,,,0.38,VWS V14.01,2013-05-28 09:46:00,
2013-05-28 05:51:00,59.4,58.5,29.82,SSW,193,0.0,2.0,97,0.00,,,0.38,VWS V14.01,2013-05-28 09:51:00,
2013-05-28 05:55:00,59.5,58.7,29.82,SSW,193,0.0,2.0,97,0.00,,,0.38,VWS V14.01,2013-05-28 09:55:00,
2013-05-28 06:00:00,59.6,58.8,29.82,SSW,193,0.0,2.0,97,0.00,,,0.38,VWS V14.01,2013-05-28 10:00:00,
2013-05-28 06:05:00,59.9,59.3,29.82,SSW,193,0.0,1.0,98,0.00,,,0.38,VWS V14.01,2013-05-28 10:05:00,
2013-05-28 06:10:00,60.0,59.4,29.82,SSW,200,1.0,1.0,98,0.00,,,0.38,VWS V14.01,2013-05-28 10:10:00,
2013-05-28 06:15:00,60.2,59.6,29.82,SSW,203,1.0,1.0,98,0.01,,,0.39,VWS V14.01,2013-05-28 10:15:00,
2013-05-28 06:20:00,60.3,59.7,29.82,SSW,204,0.0,1.0,98,0.02,,,0.40,VWS V14.01,2013-05-28 10:20:00,
2013-05-28 06:25:00,60.5,59.9,29.82,SSW,210,0.0,1.0,98,0.03,,,0.41,VWS V14.01,2013-05-28 10:25:00,
2013-05-28 06:30:00,60.7,60.1,29.82,SSW,201,0.0,2.0,98,0.03,,,0.41,VWS V14.01,2013-05-28 10:30:00,
2013-05-28 06:35:00,60.8,60.2,29.82,SSW,201,0.0,2.0,98,0.04,,,0.42,VWS V14.01,2013-05-28 10:35:00,
2013-05-28 06:40:00,61.0,60.4,29.83,SSW,201,0.0,2.0,98,0.05,,,0.43,VWS V14.01,2013-05-28 10:40:00,
2013-05-28 06:45:00,61.1,60.5,29.83,SSW,201,0.0,2.0,98,0.05,,,0.43,VWS V14.01,2013-05-28 10:45:00,
2013-05-28 06:50:00,61.2,60.6,29.83,SSW,203,0.0,2.0,98,0.05,,,0.43,VWS V14.01,2013-05-28 10:50:00,
2013-05-28 06:55:00,61.4,60.8,29.83,SSW,195,0.0,2.0,98,0.05,,,0.43,VWS V14.01,2013-05-28 10:55:00,
2013-05-28 07:00:00,61.8,61.2,29.83,SSW,203,0.0,2.0,98,0.05,,,0.43,VWS V14.01,2013-05-28 11:00:00,
2013-05-28 07:05:00,62.0,61.4,29.83,South,191,1.0,1.0,98,0.05,,,0.43,VWS V14.01,2013-05-28 11:05:00,
2013-05-28 07:10:00,62.2,61.9,29.83,SSW,193,1.0,1.0,99,0.06,,,0.44,VWS V14.01,2013-05-28 11:10:00,
2013-05-28 07:15:00,62.3,61.7,29.84,SSW,193,0.0,2.0,98,0.06,,,0.44,VWS V14.01,2013-05-28 11:15:00,
2013-05-28 07:20:00,62.4,61.8,29.85,NW,307,2.0,2.0,98,0.08,,,0.46,VWS V14.01,2013-05-28 11:20:00,
2013-05-28 07:25:00,62.5,61.9,29.84,SSE,157,1.0,3.0,98,0.11,,,0.49,VWS V14.01,2013-05-28 11:25:00,
2013-05-28 07:30:00,62.6,62.3,29.84,SSW,207,0.0,4.0,99,0.13,,,0.51,VWS V14.01,2013-05-28 11:30:00,
2013-05-28 07:35:00,62.7,62.1,29.83,SSW,203,0.0,4.0,98,0.17,,,0.55,VWS V14.01,2013-05-28 11:35:00,
2013-05-28 07:40:00,62.8,62.2,29.83,SSW,203,0.0,4.0,98,0.18,,,0.56,VWS V14.01,2013-05-28 11:40:00,
2013-05-28 07:45:00,62.8,62.2,29.83,SSW,203,0.0,4.0,98,0.18,,,0.56,VWS V14.01,2013-05-28 11:45:00,
2013-05-28 07:50:00,62.9,62.6,29.83,SSW,203,0.0,4.0,99,0.18,,,0.56,VWS V14.01,2013-05-28 11:50:00,
2013-05-28 07:55:00,63.0,62.7,29.83,SSW,203,0.0,4.0,99,0.18,,,0.56,VWS V14.01,2013-05-28 11:55:00,
2013-05-28 08:00:00,63.2,62.9,29.83,SSW,203,0.0,4.0,99,0.18,,,0.56,VWS V14.01,2013-05-28 12:00:00,
2013-05-28 08:05:00,63.3,63.0,29.83,SSW,203,0.0,0.0,99,0.13,,,0.56,VWS V14.01,2013-05-28 12:05:00,
2013-05-28 08:10:00,63.5,63.2,29.83,SSW,203,0.0,0.0,99,0.13,,,0.56,VWS V14.01,2013-05-28 12:10:00,
2013-05-28 08:15:00,63.7,63.4,29.83,SSW,203,0.0,1.0,99,0.13,,,0.56,VWS V14.01,2013-05-28 12:15:00,
2013-05-28 08:20:00,63.9,63.6,29.83,SSW,203,0.0,1.0,99,0.13,,,0.56,VWS V14.01,2013-05-28 12:20:00,
2013-05-28 08:25:00,64.1,63.8,29.83,SSW,203,0.0,1.0,99,0.13,,,0.56,VWS V14.01,2013-05-28 12:25:00,
2013-05-28 08:30:00,64.3,64.0,29.83,SSW,203,0.0,1.0,99,0.13,,,0.56,VWS V14.01,2013-05-28 12:30:00,
2013-05-28 08:35:00,64.4,64.1,29.83,SSW,203,0.0,1.0,99,0.13,,,0.56,VWS V14.01,2013-05-28 12:35:00,
2013-05-28 08:40:00,64.5,64.2,29.83,SSW,203,0.0,1.0,99,0.13,,,0.56,VWS V14.01,2013-05-28 12:40:00,
2013-05-28 08:45:00,64.5,64.2,29.83,SSW,203,0.0,1.0,99,0.13,,,0.56,VWS V14.01,2013-05-28 12:45:00,
2013-05-28 08:50:00,64.6,64.3,29.83,SSW,203,0.0,1.0,99,0.13,,,0.56,VWS V14.01,2013-05-28 12:50:00,
2013-05-28 08:55:00,64.7,64.4,29.83,SSW,203,0.0,1.0,99,0.13,,,0.56,VWS V14.01,2013-05-28 12:55:00,
2013-05-28 09:00:00,64.8,64.5,29.84,SSW,209,0.0,2.0,99,0.13,,,0.56,VWS V14.01,2013-05-28 13:00:00,
2013-05-28 09:05:00,64.9,64.6,29.84,SSW,204,1.0,1.0,99,0.00,,,0.56,VWS V14.01,2013-05-28 13:05:00,
2013-05-28 09:10:00,65.2,64.9,29.84,SSW,204,0.0,1.0,99,0.00,,,0.56,VWS V14.01,2013-05-28 13:10:00,
2013-05-28 09:15:00,65.3,65.0,29.84,SSW,204,0.0,1.0,99,0.00,,,0.56,VWS V14.01,2013-05-28 13:15:00,
2013-05-28 09:20:00,65.5,64.9,29.83,SSW,203,0.0,1.0,98,0.00,,,0.56,VWS V14.01,2013-05-28 13:20:00,
2013-05-28 09:25:00,65.7,65.1,29.84,SSW,203,1.0,1.0,98,0.00,,,0.56,VWS V14.01,2013-05-28 13:25:00,
2013-05-28 09:30:00,65.8,65.2,29.84,SSW,212,2.0,2.0,98,0.00,,,0.56,VWS V14.01,2013-05-28 13:30:00,
2013-05-28 09:35:00,65.9,65.3,29.83,SSW,201,0.0,2.0,98,0.00,,,0.56,VWS V14.01,2013-05-28 13:35:00,
2013-05-28 09:40:00,66.1,65.5,29.83,SSW,200,1.0,3.0,98,0.00,,,0.56,VWS V14.01,2013-05-28 13:40:00,
2013-05-28 09:45:00,66.3,65.7,29.83,SSW,200,0.0,3.0,98,0.00,,,0.56,VWS V14.01,2013-05-28 13:45:00,
2013-05-28 09:50:00,66.7,66.1,29.83,SSW,200,0.0,3.0,98,0.00,,,0.56,VWS V14.01,2013-05-28 13:50:00,
2013-05-28 09:55:00,66.9,66.3,29.83,SSW,198,0.0,3.0,98,0.00,,,0.56,VWS V14.01,2013-05-28 13:55:00,
2013-05-28 10:00:00,67.1,66.2,29.82,South,191,0.0,3.0,97,0.00,,,0.56,VWS V14.01,2013-05-28 14:00:00,
2013-05-28 10:05:00,67.2,66.3,29.82,SSE,163,0.0,1.0,97,0.00,,,0.56,VWS V14.01,2013-05-28 14:05:00,
2013-05-28 10:10:00,67.6,66.4,29.82,South,169,0.0,3.0,96,0.00,,,0.56,VWS V14.01,2013-05-28 14:10:00,
2013-05-28 10:15:00,67.9,66.7,29.82,South,175,0.0,3.0,96,0.00,,,0.56,VWS V14.01,2013-05-28 14:15:00,
2013-05-28 10:20:00,68.2,66.7,29.82,South,189,1.0,3.0,95,0.00,,,0.56,VWS V14.01,2013-05-28 14:20:00,
2013-05-28 10:25:00,68.8,67.0,29.82,South,170,0.0,4.0,94,0.00,,,0.56,VWS V14.01,2013-05-28 14:25:00,
2013-05-28 10:30:00,69.2,67.4,29.81,SSW,208,1.0,4.0,94,0.00,,,0.56,VWS V14.01,2013-05-28 14:30:00,
2013-05-28 10:35:00,69.7,67.6,29.81,SSE,156,0.0,4.0,93,0.00,,,0.56,VWS V14.01,2013-05-28 14:35:00,
2013-05-28 10:40:00,70.1,67.4,29.81,SSW,212,0.0,4.0,91,0.00,,,0.56,VWS V14.01,2013-05-28 14:40:00,
2013-05-28 10:45:00,70.6,67.5,29.81,SSW,212,4.0,5.0,90,0.00,,,0.56,VWS V14.01,2013-05-28 14:45:00,
2013-05-28 10:50:00,71.0,67.6,29.81,SW,221,3.0,5.0,89,0.00,,,0.56,VWS V14.01,2013-05-28 14:50:00,
2013-05-28 10:55:00,71.4,67.3,29.81,South,190,1.0,7.0,87,0.00,,,0.56,VWS V14.01,2013-05-28 14:55:00,
2013-05-28 11:00:00,71.6,67.5,29.81,SSW,206,2.0,7.0,87,0.00,,,0.56,VWS V14.01,2013-05-28 15:00:00,
2013-05-28 11:05:00,72.0,67.6,29.81,SSW,203,0.0,3.0,86,0.00,,,0.56,VWS V14.01,2013-05-28 15:05:00,
2013-05-28 11:10:00,72.5,68.1,29.81,South,183,1.0,8.0,86,0.00,,,0.56,VWS V14.01,2013-05-28 15:10:00,
2013-05-28 11:15:00,73.1,68.3,29.81,SSW,198,2.0,8.0,85,0.00,,,0.56,VWS V14.01,2013-05-28 15:15:00,
2013-05-28 11:20:00,73.7,68.2,29.81,SSW,203,1.0,8.0,83,0.00,,,0.56,VWS V14.01,2013-05-28 15:20:00,
2013-05-28 11:25:00,74.2,68.0,29.81,SSW,213,2.0,8.0,81,0.00,,,0.56,VWS V14.01,2013-05-28 15:25:00,
2013-05-28 11:30:00,74.6,68.8,29.81,SSW,196,1.0,8.0,82,0.00,,,0.56,VWS V14.01,2013-05-28 15:30:00,
2013-05-28 11:35:00,75.0,68.1,29.81,SSW,210,2.0,8.0,79,0.00,,,0.56,VWS V14.01,2013-05-28 15:35:00,
2013-05-28 11:40:00,75.1,68.5,29.80,South,174,1.0,8.0,80,0.00,,,0.56,VWS V14.01,2013-05-28 15:40:00,
2013-05-28 11:45:00,75.2,68.2,29.80,SSW,193,2.0,8.0,79,0.00,,,0.56,VWS V14.01,2013-05-28 15:45:00,
2013-05-28 11:50:00,75.4,68.4,29.80,South,191,0.0,8.0,79,0.00,,,0.56,VWS V14.01,2013-05-28 15:50:00,
2013-05-28 11:55:00,75.7,68.4,29.80,South,187,2.0,8.0,78,0.00,,,0.56,VWS V14.01,2013-05-28 15:55:00,
2013-05-28 12:00:00,75.7,68.7,29.79,SSW,195,0.0,8.0,79,0.00,,,0.56,VWS V14.01,2013-05-28 16:00:00,
2013-05-28 12:05:00,75.9,68.6,29.79,SSW,208,2.0,4.0,78,0.00,,,0.56,VWS V14.01,2013-05-28 16:05:00,
2013-05-28 12:10:00,76.1,68.8,29.78,SSE,168,1.0,5.0,78,0.00,,,0.56,VWS V14.01,2013-05-28 16:10:00,
2013-05-28 12:15:00,76.3,69.7,29.78,South,190,1.0,5.0,80,0.00,,,0.56,VWS V14.01,2013-05-28 16:15:00,
2013-05-28 12:20:00,76.5,69.5,29.77,SSW,207,1.0,5.0,79,0.00,,,0.56,VWS V14.01,2013-05-28 16:20:00,
2013-05-28 12:25:00,77.1,69.7,29.77,South,177,1.0,6.0,78,0.00,,,0.56,VWS V14.01,2013-05-28 16:25:00,
2013-05-28 12:30:00,77.4,70.0,29.77,SSW,211,2.0,6.0,78,0.00,,,0.56,VWS V14.01,2013-05-28 16:30:00,
2013-05-28 12:35:00,77.9,70.5,29.77,South,191,1.0,6.0,78,0.00,,,0.56,VWS V14.01,2013-05-28 16:35:00,
2013-05-28 12:40:00,78.5,70.7,29.78,South,191,2.0,8.0,77,0.00,,,0.56,VWS V14.01,2013-05-28 16:40:00,
2013-05-28 12:45:00,79.0,70.4,29.77,SSW,201,4.0,8.0,75,0.00,,,0.56,VWS V14.01,2013-05-28 16:45:00,
2013-05-28 12:50:00,78.8,70.2,29.77,SSW,204,0.0,8.0,75,0.00,,,0.56,VWS V14.01,2013-05-28 16:50:00,
2013-05-28 12:55:00,78.7,70.1,29.77,SSW,208,2.0,8.0,75,0.00,,,0.56,VWS V14.01,2013-05-28 16:55:00,
2013-05-28 13:00:00,78.8,69.4,29.77,SSW,204,3.0,8.0,73,0.00,,,0.56,VWS V14.01,2013-05-28 17:00:00,
2013-05-28 13:05:00,79.1,69.7,29.78,SSW,195,1.0,6.0,73,0.00,,,0.56,VWS V14.01,2013-05-28 17:05:00,
2013-05-28 13:10:00,79.2,70.2,29.77,SSW,193,1.0,6.0,74,0.00,,,0.56,VWS V14.01,2013-05-28 17:10:00,
2013-05-28 13:15:00,79.4,69.6,29.78,SSW,194,3.0,8.0,72,0.00,,,0.56,VWS V14.01,2013-05-28 17:15:00,
2013-05-28 13:20:00,79.2,69.0,29.77,SSW,200,3.0,8.0,71,0.00,,,0.56,VWS V14.01,2013-05-28 17:20:00,
2013-05-28 13:25:00,79.2,69.0,29.77,South,191,3.0,8.0,71,0.00,,,0.56,VWS V14.01,2013-05-28 17:25:00,
2013-05-28 13:30:00,79.1,69.3,29.77,SSW,195,5.0,8.0,72,0.00,,,0.56,VWS V14.01,2013-05-28 17:30:00,
2013-05-28 13:35:00,79.0,69.2,29.77,South,176,3.0,8.0,72,0.00,,,0.56,VWS V14.01,2013-05-28 17:35:00,
2013-05-28 13:40:00,79.1,69.7,29.77,South,181,4.0,8.0,73,0.00,,,0.56,VWS V14.01,2013-05-28 17:40:00,
2013-05-28 13:45:00,79.8,70.0,29.76,SSW,203,3.0,8.0,72,0.00,,,0.56,VWS V14.01,2013-05-28 17:45:00,
2013-05-28 13:50:00,79.8,69.6,29.76,WNW,297,3.0,8.0,71,0.00,,,0.56,VWS V14.01,2013-05-28 17:50:00,
2013-05-28 13:55:00,80.3,70.5,29.76,NNW,336,4.0,8.0,72,0.00,,,0.56,VWS V14.01,2013-05-28 17:55:00,
2013-05-28 14:00:00,80.6,69.5,29.76,SSW,210,4.0,8.0,69,0.00,,,0.56,VWS V14.01,2013-05-28 18:00:00,
2013-05-28 14:05:00,80.1,69.4,29.75,SSW,204,2.0,6.0,70,0.00,,,0.56,VWS V14.01,2013-05-28 18:05:00,
2013-05-28 14:10:00,80.1,69.4,29.75,South,180,3.0,10.0,70,0.00,,,0.56,VWS V14.01,2013-05-28 18:10:00,
2013-05-28 14:15:00,80.4,69.3,29.75,South,191,3.0,10.0,69,0.00,,,0.56,VWS V14.01,2013-05-28 18:15:00,
2013-05-28 14:20:00,80.4,69.3,29.75,SW,219,2.0,10.0,69,0.00,,,0.56,VWS V14.01,2013-05-28 18:20:00,
2013-05-28 14:25:00,80.2,69.1,29.75,South,184,2.0,10.0,69,0.00,,,0.56,VWS V14.01,2013-05-28 18:25:00,
2013-05-28 14:30:00,80.0,68.5,29.74,SW,215,0.0,10.0,68,0.00,,,0.56,VWS V14.01,2013-05-28 18:30:00,
2013-05-28 14:35:00,80.0,69.3,29.75,SSE,148,3.0,10.0,70,0.00,,,0.56,VWS V14.01,2013-05-28 18:35:00,
2013-05-28 14:40:00,80.1,69.0,29.75,SSW,196,1.0,10.0,69,0.00,,,0.56,VWS V14.01,2013-05-28 18:40:00,
2013-05-28 14:45:00,80.0,68.9,29.74,SSW,193,3.0,10.0,69,0.00,,,0.56,VWS V14.01,2013-05-28 18:45:00,
2013-05-28 14:50:00,79.9,68.4,29.75,SSW,208,4.0,10.0,68,0.00,,,0.56,VWS V14.01,2013-05-28 18:50:00,
2013-05-28 14:55:00,79.8,68.7,29.75,South,191,1.0,10.0,69,0.00,,,0.56,VWS V14.01,2013-05-28 18:55:00,
2013-05-28 15:00:00,79.7,69.5,29.75,SSW,208,5.0,10.0,71,0.00,,,0.56,VWS V14.01,2013-05-28 19:00:00,
2013-05-28 15:05:00,79.6,68.5,29.75,South,191,2.0,7.0,69,0.00,,,0.56,VWS V14.01,2013-05-28 19:05:00,
2013-05-28 15:10:00,79.6,69.0,29.75,SSW,193,3.0,7.0,70,0.00,,,0.56,VWS V14.01,2013-05-28 19:10:00,
2013-05-28 15:15:00,79.4,68.8,29.75,South,191,5.0,7.0,70,0.00,,,0.56,VWS V14.01,2013-05-28 19:15:00,
2013-05-28 15:20:00,79.3,69.1,29.75,SSW,204,1.0,7.0,71,0.00,,,0.56,VWS V14.01,2013-05-28 19:20:00,
2013-05-28 15:25:00,79.2,69.4,29.76,SSW,205,1.0,7.0,72,0.00,,,0.56,VWS V14.01,2013-05-28 19:25:00,
2013-05-28 15:30:00,79.0,69.2,29.76,SSW,201,3.0,7.0,72,0.00,,,0.56,VWS V14.01,2013-05-28 19:30:00,
2013-05-28 15:35:00,78.8,69.4,29.76,WSW,257,2.0,8.0,73,0.00,,,0.56,VWS V14.01,2013-05-28 19:35:00,
2013-05-28 15:40:00,78.6,68.8,29.76,SSW,193,3.0,8.0,72,0.00,,,0.56,VWS V14.01,2013-05-28 19:40:00,
2013-05-28 15:45:00,78.7,68.9,29.76,North,4,5.0,8.0,72,0.00,,,0.56,VWS V14.01,2013-05-28 19:45:00,
2013-05-28 15:50:00,78.8,69.0,29.76,SSW,199,1.0,8.0,72,0.00,,,0.56,VWS V14.01,2013-05-28 19:50:00,
2013-05-28 15:55:00,78.8,69.0,29.76,SSW,203,2.0,8.0,72,0.00,,,0.56,VWS V14.01,2013-05-28 19:55:00,
2013-05-28 16:00:00,78.8,69.4,29.75,South,186,2.0,8.0,73,0.00,,,0.56,VWS V14.01,2013-05-28 20:00:00,
2013-05-28 16:05:00,78.8,69.0,29.75,SSW,208,4.0,5.0,72,0.00,,,0.56,VWS V14.01,2013-05-28 20:05:00,
2013-05-28 16:10:00,78.9,69.1,29.75,SSW,198,4.0,9.0,72,0.00,,,0.56,VWS V14.01,2013-05-28 20:10:00,
2013-05-28 16:15:00,78.9,68.3,29.75,South,184,2.0,9.0,70,0.00,,,0.56,VWS V14.01,2013-05-28 20:15:00,
2013-05-28 16:20:00,79.0,69.2,29.75,SSW,207,1.0,9.0,72,0.00,,,0.56,VWS V14.01,2013-05-28 20:20:00,
2013-05-28 16:25:00,79.0,68.8,29.75,SSW,198,0.0,9.0,71,0.00,,,0.56,VWS V14.01,2013-05-28 20:25:00,
2013-05-28 16:30:00,79.1,68.9,29.75,SSW,210,1.0,9.0,71,0.00,,,0.56,VWS V14.01,2013-05-28 20:30:00,
2013-05-28 16:35:00,79.6,69.8,29.75,SSW,212,2.0,9.0,72,0.00,,,0.56,VWS V14.01,2013-05-28 20:35:00,
2013-05-28 16:40:00,80.0,69.3,29.74,SSW,208,6.0,9.0,70,0.00,,,0.56,VWS V14.01,2013-05-28 20:40:00,
2013-05-28 16:45:00,79.9,68.8,29.74,SSE,167,0.0,9.0,69,0.00,,,0.56,VWS V14.01,2013-05-28 20:45:00,
2013-05-28 16:50:00,79.8,69.2,29.74,SSW,194,2.0,9.0,70,0.00,,,0.56,VWS V14.01,2013-05-28 20:50:00,
2013-05-28 16:55:00,79.7,68.6,29.74,SSW,200,1.0,9.0,69,0.00,,,0.56,VWS V14.01,2013-05-28 20:55:00,
2013-05-28 17:00:00,79.8,68.7,29.74,South,190,2.0,9.0,69,0.00,,,0.56,VWS V14.01,2013-05-28 21:00:00,
2013-05-28 17:04:00,79.8,68.7,29.74,SSW,205,2.0,6.0,69,0.00,,,0.56,VWS V14.01,2013-05-28 21:04:00,
2013-05-28 17:09:00,79.8,68.3,29.74,SSW,204,2.0,6.0,68,0.00,,,0.56,VWS V14.01,2013-05-28 21:09:00,
2013-05-28 17:14:00,79.9,68.8,29.74,SSW,201,2.0,6.0,69,0.00,,,0.56,VWS V14.01,2013-05-28 21:14:00,
2013-05-28 17:19:00,80.3,69.2,29.74,SW,214,2.0,6.0,69,0.00,,,0.56,VWS V14.01,2013-05-28 21:19:00,
2013-05-28 17:24:00,80.7,69.2,29.74,SSW,200,1.0,6.0,68,0.00,,,0.56,VWS V14.01,2013-05-28 21:24:00,
2013-05-28 17:29:00,81.0,69.4,29.74,SSW,212,1.0,6.0,68,0.00,,,0.56,VWS V14.01,2013-05-28 21:29:00,
2013-05-28 17:34:00,80.9,68.9,29.74,SSW,197,2.0,9.0,67,0.00,,,0.56,VWS V14.01,2013-05-28 21:34:00,
2013-05-28 17:39:00,80.9,69.4,29.74,SSW,209,3.0,9.0,68,0.00,,,0.56,VWS V14.01,2013-05-28 21:39:00,
2013-05-28 17:44:00,80.9,69.8,29.74,SSW,208,5.0,9.0,69,0.00,,,0.56,VWS V14.01,2013-05-28 21:44:00,
2013-05-28 17:49:00,80.7,68.7,29.74,SSW,198,2.0,9.0,67,0.00,,,0.56,VWS V14.01,2013-05-28 21:49:00,
2013-05-28 17:54:00,80.5,68.5,29.74,SSW,198,2.0,9.0,67,0.00,,,0.56,VWS V14.01,2013-05-28 21:54:00,
2013-05-28 17:59:00,80.7,69.2,29.73,South,188,2.0,9.0,68,0.00,,,0.56,VWS V14.01,2013-05-28 21:59:00,
2013-05-28 18:04:00,81.2,69.2,29.73,SSW,198,2.0,4.0,67,0.00,,,0.56,VWS V14.01,2013-05-28 22:04:00,
2013-05-28 18:09:00,81.5,69.5,29.73,SSW,200,3.0,6.0,67,0.00,,,0.56,VWS V14.01,2013-05-28 22:09:00,
2013-05-28 18:14:00,81.6,69.2,29.73,South,191,1.0,6.0,66,0.00,,,0.56,VWS V14.01,2013-05-28 22:14:00,
2013-05-28 18:19:00,81.5,68.6,29.73,SSW,210,0.0,6.0,65,0.00,,,0.56,VWS V14.01,2013-05-28 22:19:00,
2013-05-28 18:24:00,81.0,68.6,29.73,South,190,2.0,6.0,66,0.00,,,0.56,VWS V14.01,2013-05-28 22:24:00,
2013-05-28 18:29:00,80.7,68.7,29.73,SSW,198,0.0,6.0,67,0.00,,,0.56,VWS V14.01,2013-05-28 22:29:00,
2013-05-28 18:34:00,80.8,69.3,29.73,SSW,212,0.0,6.0,68,0.00,,,0.56,VWS V14.01,2013-05-28 22:34:00,
2013-05-28 18:39:00,80.9,68.9,29.73,SSW,209,2.0,6.0,67,0.00,,,0.56,VWS V14.01,2013-05-28 22:39:00,
2013-05-28 18:44:00,80.9,69.4,29.73,SSW,194,2.0,6.0,68,0.00,,,0.56,VWS V14.01,2013-05-28 22:44:00,
2013-05-28 18:49:00,81.0,69.4,29.73,SSW,201,1.0,6.0,68,0.00,,,0.56,VWS V14.01,2013-05-28 22:49:00,
2013-05-28 18:54:00,80.9,68.9,29.73,South,181,1.0,6.0,67,0.00,,,0.56,VWS V14.01,2013-05-28 22:54:00,
2013-05-28 18:59:00,80.8,69.3,29.74,South,184,1.0,6.0,68,0.00,,,0.56,VWS V14.01,2013-05-28 22:59:00,
2013-05-28 19:04:00,80.5,69.0,29.74,SSW,197,1.0,3.0,68,0.00,,,0.56,VWS V14.01,2013-05-28 23:04:00,
2013-05-28 19:09:00,80.1,69.0,29.74,South,191,2.0,3.0,69,0.00,,,0.56,VWS V14.01,2013-05-28 23:09:00,
2013-05-28 19:14:00,79.8,68.7,29.74,SSW,200,1.0,4.0,69,0.00,,,0.56,VWS V14.01,2013-05-28 23:14:00,
2013-05-28 19:19:00,79.6,68.5,29.74,SSW,197,2.0,4.0,69,0.00,,,0.56,VWS V14.01,2013-05-28 23:19:00,
2013-05-28 19:24:00,79.4,68.3,29.74,South,179,1.0,4.0,69,0.00,,,0.56,VWS V14.01,2013-05-28 23:24:00,
2013-05-28 19:29:00,79.2,68.2,29.75,SSW,195,2.0,4.0,69,0.00,,,0.56,VWS V14.01,2013-05-28 23:29:00,
2013-05-28 19:34:00,79.1,68.1,29.75,SSW,204,0.0,4.0,69,0.00,,,0.56,VWS V14.01,2013-05-28 23:34:00,
2013-05-28 19:39:00,79.1,68.1,29.75,SSW,200,0.0,5.0,69,0.00,,,0.56,VWS V14.01,2013-05-28 23:39:00,
2013-05-28 19:44:00,79.0,68.0,29.75,SSW,211,2.0,5.0,69,0.00,,,0.56,VWS V14.01,2013-05-28 23:44:00,
2013-05-28 19:49:00,78.9,67.9,29.75,NE,54,1.0,5.0,69,0.00,,,0.56,VWS V14.01,2013-05-28 23:49:00,
2013-05-28 19:54:00,78.9,68.3,29.75,SSW,204,1.0,5.0,70,0.00,,,0.56,VWS V14.01,2013-05-28 23:54:00,
2013-05-28 19:59:00,78.9,68.3,29.75,SSW,205,1.0,5.0,70,0.00,,,0.56,VWS V14.01,2013-05-28 23:59:00,
2013-05-28 20:04:00,78.8,68.2,29.75,SSW,210,2.0,2.0,70,0.00,,,0.56,VWS V14.01,2013-05-29 00:04:00,
2013-05-28 20:09:00,78.8,67.8,29.75,SSW,197,1.0,4.0,69,0.00,,,0.56,VWS V14.01,2013-05-29 00:09:00,
2013-05-28 20:14:00,78.7,68.1,29.75,SSW,198,0.0,4.0,70,0.00,,,0.56,VWS V14.01,2013-05-29 00:14:00,
2013-05-28 20:19:00,78.4,67.8,29.75,SSW,198,0.0,4.0,70,0.00,,,0.56,VWS V14.01,2013-05-29 00:19:00,
2013-05-28 20:24:00,78.3,67.7,29.75,SSW,203,2.0,4.0,70,0.00,,,0.56,VWS V14.01,2013-05-29 00:24:00,
2013-05-28 20:29:00,78.3,68.1,29.75,SSW,204,1.0,4.0,71,0.00,,,0.56,VWS V14.01,2013-05-29 00:29:00,
2013-05-28 20:34:00,78.1,67.9,29.75,SSW,203,1.0,4.0,71,0.00,,,0.56,VWS V14.01,2013-05-29 00:34:00,
2013-05-28 20:39:00,77.7,68.0,29.74,SSW,198,1.0,4.0,72,0.00,,,0.56,VWS V14.01,2013-05-29 00:39:00,
2013-05-28 20:44:00,77.5,68.2,29.74,SSW,198,1.0,4.0,73,0.00,,,0.56,VWS V14.01,2013-05-29 00:44:00,
2013-05-28 20:49:00,77.4,68.1,29.74,SSW,197,1.0,4.0,73,0.00,,,0.56,VWS V14.01,2013-05-29 00:49:00,
2013-05-28 20:54:00,77.2,67.9,29.74,SSW,212,2.0,4.0,73,0.00,,,0.56,VWS V14.01,2013-05-29 00:54:00,
2013-05-28 20:59:00,77.1,67.8,29.73,SSW,205,0.0,4.0,73,0.00,,,0.56,VWS V14.01,2013-05-29 00:59:00,
2013-05-28 21:04:00,77.0,67.7,29.73,SSW,194,1.0,2.0,73,0.00,,,0.56,VWS V14.01,2013-05-29 01:04:00,
2013-05-28 21:09:00,76.7,67.4,29.73,SSW,211,3.0,4.0,73,0.00,,,0.56,VWS V14.01,2013-05-29 01:09:00,
2013-05-28 21:14:00,76.5,67.6,29.73,SSW,204,0.0,5.0,74,0.00,,,0.56,VWS V14.01,2013-05-29 01:14:00,
2013-05-28 21:19:00,76.4,67.5,29.73,SSW,197,1.0,5.0,74,0.00,,,0.56,VWS V14.01,2013-05-29 01:19:00,
2013-05-28 21:24:00,76.2,67.3,29.73,SSW,197,1.0,5.0,74,0.00,,,0.56,VWS V14.01,2013-05-29 01:24:00,
2013-05-28 21:29:00,76.0,67.1,29.73,SSW,195,1.0,5.0,74,0.00,,,0.56,VWS V14.01,2013-05-29 01:29:00,
2013-05-28 21:34:00,75.8,67.3,29.73,SSW,210,1.0,5.0,75,0.00,,,0.56,VWS V14.01,2013-05-29 01:34:00,
2013-05-28 21:39:00,75.6,66.7,29.73,SSW,197,0.0,5.0,74,0.00,,,0.56,VWS V14.01,2013-05-29 01:39:00,
2013-05-28 21:44:00,75.5,67.0,29.73,South,177,0.0,5.0,75,0.00,,,0.56,VWS V14.01,2013-05-29 01:44:00,
2013-05-28 21:49:00,75.4,66.9,29.73,SSW,198,0.0,5.0,75,0.00,,,0.56,VWS V14.01,2013-05-29 01:49:00,
2013-05-28 21:54:00,75.2,66.7,29.73,SSW,206,1.0,5.0,75,0.00,,,0.56,VWS V14.01,2013-05-29 01:54:00,
2013-05-28 21:59:00,75.0,66.6,29.73,SSW,197,2.0,5.0,75,0.00,,,0.56,VWS V14.01,2013-05-29 01:59:00,
2013-05-28 22:04:00,74.9,66.4,29.73,SSW,197,0.0,1.0,75,0.00,,,0.56,VWS V14.01,2013-05-29 02:04:00,
2013-05-28 22:09:00,74.8,66.3,29.73,SSW,204,0.0,2.0,75,0.00,,,0.56,VWS V14.01,2013-05-29 02:09:00,
2013-05-28 22:14:00,74.6,66.2,29.74,South,191,0.0,2.0,75,0.00,,,0.56,VWS V14.01,2013-05-29 02:14:00,
2013-05-28 22:19:00,74.5,66.1,29.74,South,181,0.0,3.0,75,0.00,,,0.56,VWS V14.01,2013-05-29 02:19:00,
2013-05-28 22:24:00,74.5,66.1,29.74,SSW,210,1.0,4.0,75,0.00,,,0.56,VWS V14.01,2013-05-29 02:24:00,
2013-05-28 22:29:00,74.4,66.0,29.73,SSW,193,1.0,4.0,75,0.00,,,0.56,VWS V14.01,2013-05-29 02:29:00,
2013-05-28 22:34:00,74.4,66.0,29.73,SSW,193,2.0,7.0,75,0.00,,,0.56,VWS V14.01,2013-05-29 02:34:00,
2013-05-28 22:39:00,74.2,65.4,29.73,SSW,200,2.0,7.0,74,0.00,,,0.56,VWS V14.01,2013-05-29 02:39:00,
2013-05-28 22:44:00,74.0,64.8,29.74,SSW,203,3.0,7.0,73,0.00,,,0.56,VWS V14.01,2013-05-29 02:44:00,
2013-05-28 22:49:00,74.1,64.9,29.74,SSW,207,1.0,7.0,73,0.00,,,0.56,VWS V14.01,2013-05-29 02:49:00,
2013-05-28 22:54:00,74.1,64.9,29.74,SSW,200,1.0,7.0,73,0.00,,,0.56,VWS V14.01,2013-05-29 02:54:00,
2013-05-28 22:59:00,74.0,64.4,29.74,SSW,193,2.0,7.0,72,0.00,,,0.56,VWS V14.01,2013-05-29 02:59:00,
2013-05-28 23:04:00,74.1,64.5,29.74,SSW,200,1.0,3.0,72,0.00,,,0.56,VWS V14.01,2013-05-29 03:04:00,
2013-05-28 23:09:00,74.2,64.2,29.75,SSW,204,3.0,5.0,71,0.00,,,0.56,VWS V14.01,2013-05-29 03:09:00,
2013-05-28 23:14:00,74.2,64.2,29.75,SSW,197,0.0,6.0,71,0.00,,,0.56,VWS V14.01,2013-05-29 03:14:00,
2013-05-28 23:19:00,74.1,64.1,29.75,SSW,195,0.0,6.0,71,0.00,,,0.56,VWS V14.01,2013-05-29 03:19:00,
2013-05-28 23:24:00,74.1,64.1,29.75,SW,218,3.0,6.0,71,0.00,,,0.56,VWS V14.01,2013-05-29 03:24:00,
2013-05-28 23:29:00,74.3,64.3,29.76,SSW,210,3.0,6.0,71,0.00,,,0.56,VWS V14.01,2013-05-29 03:29:00,
2013-05-28 23:34:00,74.4,64.4,29.76,SSW,201,3.0,6.0,71,0.00,,,0.56,VWS V14.01,2013-05-29 03:34:00,
2013-05-28 23:39:00,74.4,64.0,29.75,SSW,199,2.0,6.0,70,0.00,,,0.56,VWS V14.01,2013-05-29 03:39:00,
2013-05-28 23:44:00,74.4,64.0,29.75,South,188,1.0,6.0,70,0.00,,,0.56,VWS V14.01,2013-05-29 03:44:00,
2013-05-28 23:49:00,74.4,64.0,29.76,SSW,212,2.0,7.0,70,0.00,,,0.56,VWS V14.01,2013-05-29 03:49:00,
2013-05-28 23:54:00,74.3,63.9,29.76,SSW,195,0.0,7.0,70,0.00,,,0.56,VWS V14.01,2013-05-29 03:54:00,
2013-05-28 23:59:00,74.3,64.3,29.75,SW,219,4.0,7.0,71,0.00,,,0.56,VWS V14.01,2013-05-29 03:59:00,